Time,TemperatureF,DewpointF,PressureIn,WindDirection,WindDirectionDegrees,WindSpeedMPH,WindSpeedGustMPH,Humidity,HourlyPrecipIn,Conditions,Clouds,dailyrainin,SoftwareType,DateUTC
2013-01-27 00:09:00,20.1,4.0,0.00,SE,132,0.0,0.0,49,0.00,,---,0.00,VWS V14.00,2013-01-27 05:09:00,
2013-01-27 00:19:00,19.8,3.7,0.00,ESE,115,0.0,0.0,49,0.00,,---,0.00,VWS V14.00,2013-01-27 05:19:00,
2013-01-27 00:29:00,19.6,3.5,0.00,SE,129,0.0,0.0,49,0.00,,---,0.00,VWS V14.00,2013-01-27 05:29:00,
2013-01-27 00:39:00,19.6,3.5,0.00,ESE,116,0.0,0.0,49,0.00,,---,0.00,VWS V14.00,2013-01-27 05:39:00,
2013-01-27 00:49:00,19.4,3.4,0.00,ESE,110,0.0,2.2,49,0.00,,---,0.00,VWS V14.00,2013-01-27 05:49:00,
2013-01-27 00:59:00,19.2,3.2,0.00,ESE,110,0.0,0.0,49,0.00,,---,0.00,VWS V14.00,2013-01-27 05:59:00,
2013-01-27 01:09:00,18.7,2.7,0.00,ESE,110,0.0,0.0,49,0.00,,---,0.00,VWS V14.00,2013-01-27 06:09:00,
2013-01-27 01:19:00,18.5,2.5,0.00,ESE,110,0.0,0.0,49,0.00,,---,0.00,VWS V14.00,2013-01-27 06:19:00,
2013-01-27 01:29:00,18.3,2.8,0.00,ESE,110,0.0,0.0,50,0.00,,---,0.00,VWS V14.00,2013-01-27 06:29:00,
2013-01-27 01:39:00,17.6,1.7,0.00,ESE,110,0.0,0.0,49,0.00,,---,0.00,VWS V14.00,2013-01-27 06:39:00,
2013-01-27 01:49:00,17.8,2.7,0.00,ESE,110,0.0,0.0,51,0.00,,---,0.00,VWS V14.00,2013-01-27 06:49:00,
2013-01-27 01:59:00,18.1,3.5,0.00,ESE,110,0.0,0.0,52,0.00,,---,0.00,VWS V14.00,2013-01-27 06:59:00,
2013-01-27 02:19:00,17.6,3.0,0.00,ESE,110,0.0,0.0,52,0.00,,---,0.00,VWS V14.00,2013-01-27 07:19:00,
2013-01-27 02:29:00,17.4,3.2,0.00,ESE,109,0.0,0.0,53,0.00,,---,0.00,VWS V14.00,2013-01-27 07:29:00,
2013-01-27 02:39:00,17.8,3.6,0.00,ESE,109,0.0,0.0,53,0.00,,---,0.00,VWS V14.00,2013-01-27 07:39:00,
2013-01-27 02:49:00,18.7,4.8,0.00,East,98,0.0,0.0,54,0.00,,---,0.00,VWS V14.00,2013-01-27 07:49:00,
2013-01-27 02:59:00,18.9,5.0,0.00,ESE,105,0.0,0.0,54,0.00,,---,0.00,VWS V14.00,2013-01-27 07:59:00,
2013-01-27 03:09:00,19.0,5.1,0.00,ESE,119,0.0,0.0,54,0.00,,---,0.00,VWS V14.00,2013-01-27 08:09:00,
2013-01-27 03:19:00,18.7,4.8,0.00,ESE,119,0.0,0.0,54,0.00,,---,0.00,VWS V14.00,2013-01-27 08:19:00,
2013-01-27 03:29:00,18.3,4.1,0.00,ESE,119,0.0,0.0,53,0.00,,---,0.00,VWS V14.00,2013-01-27 08:29:00,
2013-01-27 03:39:00,17.8,3.6,0.00,ESE,119,0.0,0.0,53,0.00,,---,0.00,VWS V14.00,2013-01-27 08:39:00,
2013-01-27 03:49:00,17.1,2.9,0.00,ESE,119,0.0,0.0,53,0.00,,---,0.00,VWS V14.00,2013-01-27 08:49:00,
2013-01-27 03:59:00,17.2,3.5,0.00,ESE,119,0.0,0.0,54,0.00,,---,0.00,VWS V14.00,2013-01-27 08:59:00,
2013-01-27 04:09:00,17.1,2.9,0.00,ESE,120,0.0,0.0,53,0.00,,---,0.00,VWS V14.00,2013-01-27 09:09:00,
2013-01-27 04:19:00,16.9,2.7,0.00,ESE,119,0.0,0.0,53,0.00,,---,0.00,VWS V14.00,2013-01-27 09:19:00,
2013-01-27 04:29:00,16.9,3.1,0.00,ESE,119,0.0,0.0,54,0.00,,---,0.00,VWS V14.00,2013-01-27 09:29:00,
2013-01-27 04:39:00,17.4,3.6,0.00,ESE,119,0.0,0.0,54,0.00,,---,0.00,VWS V14.00,2013-01-27 09:39:00,
2013-01-27 04:49:00,17.6,3.8,0.00,ESE,119,0.0,0.0,54,0.00,,---,0.00,VWS V14.00,2013-01-27 09:49:00,
2013-01-27 04:59:00,18.1,4.7,0.00,ESE,112,0.0,0.0,55,0.00,,---,0.00,VWS V14.00,2013-01-27 09:59:00,
2013-01-27 05:09:00,18.3,4.9,0.00,ESE,106,0.0,0.0,55,0.00,,---,0.00,VWS V14.00,2013-01-27 10:09:00,
2013-01-27 05:19:00,18.5,5.0,0.00,ESE,103,0.0,0.0,55,0.00,,---,0.00,VWS V14.00,2013-01-27 10:19:00,
2013-01-27 05:29:00,18.5,5.0,0.00,ESE,117,0.0,0.0,55,0.00,,---,0.00,VWS V14.00,2013-01-27 10:29:00,
2013-01-27 05:39:00,18.3,4.9,0.00,ESE,117,0.0,0.0,55,0.00,,---,0.00,VWS V14.00,2013-01-27 10:39:00,
2013-01-27 05:49:00,18.3,4.9,0.00,ESE,117,0.0,0.0,55,0.00,,---,0.00,VWS V14.00,2013-01-27 10:49:00,
2013-01-27 05:59:00,18.1,4.7,0.00,ESE,117,0.0,0.0,55,0.00,,---,0.00,VWS V14.00,2013-01-27 10:59:00,
2013-01-27 06:09:00,19.2,6.1,0.00,ESE,104,0.0,0.0,56,0.00,,---,0.00,VWS V14.00,2013-01-27 11:09:00,
2013-01-27 06:19:00,19.8,6.6,0.00,SE,133,0.0,0.0,56,0.00,,---,0.00,VWS V14.00,2013-01-27 11:19:00,
2013-01-27 06:29:00,20.1,6.9,0.00,SE,128,0.0,0.0,56,0.00,,---,0.00,VWS V14.00,2013-01-27 11:29:00,
2013-01-27 06:39:00,20.1,6.2,0.00,ESE,107,0.0,0.0,54,0.00,,---,0.00,VWS V14.00,2013-01-27 11:39:00,
2013-01-27 06:49:00,19.9,6.0,0.00,ESE,116,0.0,0.0,54,0.00,,---,0.00,VWS V14.00,2013-01-27 11:49:00,
2013-01-27 06:59:00,19.8,5.8,0.00,ESE,116,0.0,0.0,54,0.00,,---,0.00,VWS V14.00,2013-01-27 11:59:00,
2013-01-27 07:09:00,20.1,6.2,0.00,ESE,116,0.0,0.0,54,0.00,,---,0.00,VWS V14.00,2013-01-27 12:09:00,
2013-01-27 07:19:00,20.1,5.7,0.00,ESE,116,0.0,0.0,53,0.00,,---,0.00,VWS V14.00,2013-01-27 12:19:00,
2013-01-27 07:29:00,20.3,5.9,0.00,ESE,116,0.0,0.0,53,0.00,,---,0.00,VWS V14.00,2013-01-27 12:29:00,
2013-01-27 07:39:00,20.5,6.1,0.00,ESE,116,0.0,0.0,53,0.00,,---,0.00,VWS V14.00,2013-01-27 12:39:00,
2013-01-27 07:49:00,20.7,6.2,0.00,ESE,116,0.0,0.0,53,0.00,,---,0.00,VWS V14.00,2013-01-27 12:49:00,
2013-01-27 07:59:00,21.2,7.2,0.00,SE,142,0.0,0.0,54,0.00,,---,0.00,VWS V14.00,2013-01-27 12:59:00,
2013-01-27 08:09:00,21.6,7.1,0.00,ESE,117,0.0,0.0,53,0.00,,---,0.00,VWS V14.00,2013-01-27 13:09:00,
2013-01-27 08:19:00,22.1,7.6,0.00,SSE,148,0.0,0.0,53,0.00,,---,0.00,VWS V14.00,2013-01-27 13:19:00,
2013-01-27 08:29:00,22.5,7.5,0.00,ESE,112,0.0,0.0,52,0.00,,---,0.00,VWS V14.00,2013-01-27 13:29:00,
2013-01-27 08:39:00,23.0,7.6,0.00,SE,126,0.0,0.0,51,0.00,,---,0.00,VWS V14.00,2013-01-27 13:39:00,
2013-01-27 08:49:00,23.5,7.2,0.00,ESE,117,0.0,0.0,49,0.00,,---,0.00,VWS V14.00,2013-01-27 13:49:00,
2013-01-27 08:59:00,23.9,6.6,0.00,SE,131,0.0,0.0,47,0.00,,---,0.00,VWS V14.00,2013-01-27 13:59:00,
2013-01-27 09:09:00,24.4,6.6,0.00,SSE,165,0.0,0.0,46,0.00,,---,0.00,VWS V14.00,2013-01-27 14:09:00,
2013-01-27 09:19:00,25.0,6.7,0.00,South,170,0.0,4.9,45,0.00,,---,0.00,VWS V14.00,2013-01-27 14:19:00,
2013-01-27 09:29:00,25.3,6.5,0.00,ESE,123,0.0,0.0,44,0.00,,---,0.00,VWS V14.00,2013-01-27 14:29:00,
2013-01-27 09:39:00,25.9,7.0,0.00,SSE,160,0.0,5.8,44,0.00,,---,0.00,VWS V14.00,2013-01-27 14:39:00,
2013-01-27 09:49:00,26.6,7.1,0.00,SSE,167,0.0,0.0,43,0.00,,---,0.00,VWS V14.00,2013-01-27 14:49:00,
2013-01-27 09:59:00,26.8,6.8,0.00,SSE,165,0.0,0.0,42,0.00,,---,0.00,VWS V14.00,2013-01-27 14:59:00,
2013-01-27 10:09:00,27.3,7.3,0.00,South,174,0.0,0.0,42,0.00,,---,0.00,VWS V14.00,2013-01-27 15:09:00,
2013-01-27 10:19:00,28.6,7.9,0.00,SSE,158,0.0,0.0,41,0.00,,---,0.00,VWS V14.00,2013-01-27 15:19:00,
2013-01-27 10:29:00,29.7,8.9,0.00,SSE,162,0.0,0.0,41,0.00,,---,0.00,VWS V14.00,2013-01-27 15:29:00,
2013-01-27 10:39:00,30.2,8.8,0.00,SE,134,0.0,0.0,40,0.00,,---,0.00,VWS V14.00,2013-01-27 15:39:00,
2013-01-27 10:49:00,30.7,8.7,0.00,SSE,148,0.0,0.0,39,0.00,,---,0.00,VWS V14.00,2013-01-27 15:49:00,
2013-01-27 10:59:00,31.3,8.6,0.00,South,185,0.0,0.0,38,0.00,,---,0.00,VWS V14.00,2013-01-27 15:59:00,
2013-01-27 11:09:00,32.0,8.1,0.00,SE,138,0.0,0.0,36,0.00,,---,0.00,VWS V14.00,2013-01-27 16:09:00,
2013-01-27 11:19:00,32.7,8.1,0.00,South,186,0.0,0.0,35,0.00,,---,0.00,VWS V14.00,2013-01-27 16:19:00,
2013-01-27 11:29:00,33.6,8.9,0.00,SSE,168,0.0,3.1,35,0.00,,---,0.00,VWS V14.00,2013-01-27 16:29:00,
2013-01-27 11:39:00,34.3,8.9,0.00,SSE,164,2.7,5.4,34,0.00,,---,0.00,VWS V14.00,2013-01-27 16:39:00,
2013-01-27 11:49:00,35.6,8.7,0.00,SSE,157,0.0,2.7,32,0.00,,---,0.00,VWS V14.00,2013-01-27 16:49:00,
2013-01-27 11:59:00,36.9,9.8,0.00,SE,141,0.0,5.4,32,0.00,,---,0.00,VWS V14.00,2013-01-27 16:59:00,
2013-01-27 12:09:00,37.0,9.2,0.00,SE,142,0.0,0.0,31,0.00,,---,0.00,VWS V14.00,2013-01-27 17:09:00,
2013-01-27 12:19:00,36.7,8.9,0.00,South,188,0.0,4.0,31,0.00,,---,0.00,VWS V14.00,2013-01-27 17:19:00,
2013-01-27 12:29:00,36.1,8.4,0.00,ESE,112,0.0,0.0,31,0.00,,---,0.00,VWS V14.00,2013-01-27 17:29:00,
2013-01-27 12:39:00,37.4,9.5,0.00,South,182,0.0,2.7,31,0.00,,---,0.00,VWS V14.00,2013-01-27 17:39:00,
2013-01-27 12:49:00,37.2,9.4,0.00,ESE,116,0.0,2.2,31,0.00,,---,0.00,VWS V14.00,2013-01-27 17:49:00,
2013-01-27 12:59:00,36.1,8.4,0.00,SE,128,0.0,0.0,31,0.00,,---,0.00,VWS V14.00,2013-01-27 17:59:00,
2013-01-27 13:09:00,36.0,8.3,0.00,ESE,105,0.0,6.3,31,0.00,,---,0.00,VWS V14.00,2013-01-27 18:09:00,
2013-01-27 13:19:00,36.5,8.8,0.00,South,171,0.0,0.0,31,0.00,,---,0.00,VWS V14.00,2013-01-27 18:19:00,
2013-01-27 13:29:00,37.0,9.2,0.00,SE,141,0.0,0.0,31,0.00,,---,0.00,VWS V14.00,2013-01-27 18:29:00,
2013-01-27 13:39:00,37.4,9.5,0.00,ESE,123,0.0,0.0,31,0.00,,---,0.00,VWS V14.00,2013-01-27 18:39:00,
2013-01-27 13:49:00,38.3,9.6,0.00,ESE,122,0.0,0.0,30,0.00,,---,0.00,VWS V14.00,2013-01-27 18:49:00,
2013-01-27 13:59:00,38.8,10.1,0.00,SSE,165,0.0,0.0,30,0.00,,---,0.00,VWS V14.00,2013-01-27 18:59:00,
2013-01-27 14:09:00,38.7,9.9,0.00,ESE,110,2.7,2.7,30,0.00,,---,0.00,VWS V14.00,2013-01-27 19:09:00,
2013-01-27 14:19:00,38.7,9.9,0.00,SE,137,0.0,3.1,30,0.00,,---,0.00,VWS V14.00,2013-01-27 19:19:00,
2013-01-27 14:29:00,38.1,9.4,0.00,South,176,0.0,2.2,30,0.00,,---,0.00,VWS V14.00,2013-01-27 19:29:00,
2013-01-27 14:39:00,38.5,9.8,0.00,SSW,200,0.0,2.7,30,0.00,,---,0.00,VWS V14.00,2013-01-27 19:39:00,
2013-01-27 14:49:00,38.3,9.6,0.00,ESE,110,0.0,5.4,30,0.00,,---,0.00,VWS V14.00,2013-01-27 19:49:00,
2013-01-27 14:59:00,37.9,9.3,0.00,WNW,282,0.0,2.2,30,0.00,,---,0.00,VWS V14.00,2013-01-27 19:59:00,
2013-01-27 15:09:00,37.0,9.2,0.00,ESE,111,0.0,2.7,31,0.00,,---,0.00,VWS V14.00,2013-01-27 20:09:00,
2013-01-27 15:19:00,36.9,9.1,0.00,ESE,115,0.0,2.7,31,0.00,,---,0.00,VWS V14.00,2013-01-27 20:19:00,
2013-01-27 15:29:00,36.9,9.8,0.00,SE,136,0.0,0.0,32,0.00,,---,0.00,VWS V14.00,2013-01-27 20:29:00,
2013-01-27 15:39:00,36.5,10.1,0.00,NE,51,0.0,2.2,33,0.00,,---,0.00,VWS V14.00,2013-01-27 20:39:00,
2013-01-27 15:49:00,36.3,10.0,0.00,SE,141,0.0,2.2,33,0.00,,---,0.00,VWS V14.00,2013-01-27 20:49:00,
2013-01-27 15:59:00,36.3,10.0,0.00,SSE,150,0.0,0.0,33,0.00,,---,0.00,VWS V14.00,2013-01-27 20:59:00,
2013-01-27 16:09:00,36.5,10.1,0.00,South,184,0.0,2.7,33,0.00,,---,0.00,VWS V14.00,2013-01-27 21:09:00,
2013-01-27 16:19:00,36.7,9.6,0.00,SSW,202,0.0,2.7,32,0.00,,---,0.00,VWS V14.00,2013-01-27 21:19:00,
2013-01-27 16:29:00,36.5,9.5,0.00,SE,146,0.0,0.0,32,0.00,,---,0.00,VWS V14.00,2013-01-27 21:29:00,
2013-01-27 16:39:00,36.5,9.5,0.00,South,181,0.0,0.0,32,0.00,,---,0.00,VWS V14.00,2013-01-27 21:39:00,
2013-01-27 16:49:00,36.5,9.5,0.00,SE,140,0.0,4.0,32,0.00,,---,0.00,VWS V14.00,2013-01-27 21:49:00,
2013-01-27 16:59:00,36.5,9.5,0.00,SSE,150,0.0,2.7,32,0.00,,---,0.00,VWS V14.00,2013-01-27 21:59:00,
2013-01-27 17:09:00,36.1,9.1,0.00,SSE,161,0.0,3.1,32,0.00,,---,0.00,VWS V14.00,2013-01-27 22:09:00,
2013-01-27 17:19:00,35.8,10.2,0.00,SE,124,0.0,4.0,34,0.00,,---,0.00,VWS V14.00,2013-01-27 22:19:00,
2013-01-27 17:29:00,35.4,11.8,0.00,South,172,0.0,5.4,37,0.00,,---,0.00,VWS V14.00,2013-01-27 22:29:00,
2013-01-27 17:39:00,35.4,13.5,0.00,South,177,4.9,5.4,40,0.00,,---,0.00,VWS V14.00,2013-01-27 22:39:00,
2013-01-27 17:49:00,35.2,13.9,0.00,South,189,0.0,4.9,41,0.00,,---,0.00,VWS V14.00,2013-01-27 22:49:00,
2013-01-27 17:59:00,35.1,13.8,0.00,SSE,155,0.0,5.4,41,0.00,,---,0.00,VWS V14.00,2013-01-27 22:59:00,
2013-01-27 18:09:00,35.2,13.9,0.00,ESE,106,0.0,0.0,41,0.00,,---,0.00,VWS V14.00,2013-01-27 23:09:00,
2013-01-27 18:19:00,35.2,13.9,0.00,South,186,0.0,3.1,41,0.00,,---,0.00,VWS V14.00,2013-01-27 23:19:00,
2013-01-27 18:29:00,35.1,14.3,0.00,South,173,0.0,0.0,42,0.04,,---,0.04,VWS V14.00,2013-01-27 23:29:00,
2013-01-27 18:39:00,35.1,14.8,0.00,SE,137,0.0,3.6,43,0.04,,---,0.04,VWS V14.00,2013-01-27 23:39:00,
2013-01-27 18:49:00,34.9,15.2,0.00,South,170,0.0,0.0,44,0.04,,---,0.04,VWS V14.00,2013-01-27 23:49:00,
2013-01-27 18:59:00,34.9,16.2,0.00,South,185,0.0,0.0,46,0.04,,---,0.04,VWS V14.00,2013-01-27 23:59:00,
2013-01-27 19:09:00,34.9,17.2,0.00,SSE,164,0.0,0.0,48,0.04,,---,0.04,VWS V14.00,2013-01-28 00:09:00,
2013-01-27 19:19:00,34.9,18.1,0.00,SSW,203,0.0,0.0,50,0.04,,---,0.04,VWS V14.00,2013-01-28 00:19:00,
2013-01-27 19:29:00,34.9,18.1,0.00,South,171,0.0,0.0,50,0.08,,---,0.08,VWS V14.00,2013-01-28 00:29:00,
2013-01-27 19:39:00,35.1,18.8,0.00,South,171,0.0,0.0,51,0.04,,---,0.08,VWS V14.00,2013-01-28 00:39:00,
2013-01-27 19:49:00,35.1,19.2,0.00,South,171,0.0,0.0,52,0.04,,---,0.08,VWS V14.00,2013-01-28 00:49:00,
2013-01-27 19:59:00,35.1,19.7,0.00,South,171,0.0,0.0,53,0.04,,---,0.08,VWS V14.00,2013-01-28 00:59:00,
2013-01-27 20:09:00,35.2,20.3,0.00,SSW,202,0.0,0.0,54,0.08,,---,0.12,VWS V14.00,2013-01-28 01:09:00,
2013-01-27 20:19:00,35.6,21.5,0.00,South,187,0.0,2.2,56,0.08,,---,0.12,VWS V14.00,2013-01-28 01:19:00,
2013-01-27 20:29:00,35.8,22.0,0.00,SSW,200,0.0,0.0,57,0.08,,---,0.12,VWS V14.00,2013-01-28 01:29:00,
2013-01-27 20:39:00,35.8,22.5,0.00,SSW,209,0.0,0.0,58,0.04,,---,0.12,VWS V14.00,2013-01-28 01:39:00,
2013-01-27 20:49:00,36.0,23.0,0.00,SSW,202,0.0,0.0,59,0.04,,---,0.12,VWS V14.00,2013-01-28 01:49:00,
2013-01-27 20:59:00,36.3,23.8,0.00,South,187,0.0,0.0,60,0.08,,---,0.16,VWS V14.00,2013-01-28 01:59:00,
2013-01-27 21:09:00,36.7,24.5,0.00,SSE,157,0.0,0.0,61,0.08,,---,0.16,VWS V14.00,2013-01-28 02:09:00,
2013-01-27 21:19:00,36.7,24.9,0.00,ESE,103,0.0,0.0,62,0.04,,---,0.16,VWS V14.00,2013-01-28 02:19:00,
2013-01-27 21:29:00,36.9,25.1,0.00,SSE,154,0.0,0.0,62,0.04,,---,0.16,VWS V14.00,2013-01-28 02:29:00,
2013-01-27 21:39:00,37.4,26.4,0.00,SSW,193,0.0,0.0,64,0.04,,---,0.16,VWS V14.00,2013-01-28 02:39:00,
2013-01-27 21:49:00,37.8,27.1,0.00,South,181,0.0,0.0,65,0.04,,---,0.16,VWS V14.00,2013-01-28 02:49:00,
2013-01-27 21:59:00,37.9,27.6,0.00,SSE,152,0.0,0.0,66,0.08,,---,0.20,VWS V14.00,2013-01-28 02:59:00,
2013-01-27 22:09:00,38.1,28.1,0.00,SSE,147,0.0,0.0,67,0.04,,---,0.20,VWS V14.00,2013-01-28 03:09:00,
2013-01-27 22:19:00,38.5,28.9,0.00,SSW,195,0.0,0.0,68,0.04,,---,0.20,VWS V14.00,2013-01-28 03:19:00,
2013-01-27 22:29:00,38.7,29.4,0.00,South,174,0.0,0.0,69,0.04,,---,0.20,VWS V14.00,2013-01-28 03:29:00,
2013-01-27 22:39:00,38.8,29.5,0.00,SW,217,0.0,0.0,69,0.04,,---,0.20,VWS V14.00,2013-01-28 03:39:00,
2013-01-27 22:49:00,39.0,30.1,0.00,SSE,158,0.0,0.0,70,0.04,,---,0.20,VWS V14.00,2013-01-28 03:49:00,
2013-01-27 22:59:00,39.2,30.2,0.00,SSE,156,0.0,0.0,70,0.04,,---,0.20,VWS V14.00,2013-01-28 03:59:00,
2013-01-27 23:09:00,39.4,30.4,0.00,SSE,163,0.0,0.0,70,0.00,,---,0.20,VWS V14.00,2013-01-28 04:09:00,
2013-01-27 23:19:00,39.4,30.8,0.00,South,170,0.0,0.0,71,0.00,,---,0.20,VWS V14.00,2013-01-28 04:19:00,
2013-01-27 23:29:00,39.7,31.1,0.00,SSW,206,0.0,0.0,71,0.00,,---,0.20,VWS V14.00,2013-01-28 04:29:00,
2013-01-27 23:39:00,39.7,31.1,0.00,South,173,0.0,0.0,71,0.00,,---,0.20,VWS V14.00,2013-01-28 04:39:00,
2013-01-27 23:49:00,39.9,31.6,0.00,SSE,158,0.0,0.0,72,0.00,,---,0.20,VWS V14.00,2013-01-28 04:49:00,
2013-01-27 23:59:00,39.9,31.6,0.00,SSW,207,0.0,0.0,72,0.00,,---,0.00,VWS V14.00,2013-01-28 04:59:00,